Time;durP1;ratioP1;P1;durP2;ratioP2;P2;SDS_P1;SDS_P2;PMS_P1;PMS_P2;Temp;Humidity;BMP_temperature;BMP_pressure;BME280_temperature;BME280_humidity;BME280_pressure;Samples;Min_cycle;Max_cycle;Signal;HPM_P1;HPM_P2
2023/09/25 00:01:04;;;;;;;0.40;0.40;;;12.00;99.90;;;;;;5095048;28;20097;-76
2023/09/25 00:03:30;;;;;;;0.47;0.47;;;12.00;99.90;;;;;;5095094;28;20094;-73
2023/09/25 00:05:55;;;;;;;2.83;0.70;;;12.00;99.90;;;;;;5095337;28;20046;-73
2023/09/25 00:08:21;;;;;;;0.93;0.60;;;12.00;99.90;;;;;;5095337;28;20082;-73
2023/09/25 00:10:46;;;;;;;0.95;0.52;;;12.00;99.90;;;;;;5095046;28;20048;-74
2023/09/25 00:13:12;;;;;;;0.50;0.50;;;12.00;99.90;;;;;;5094927;28;20075;-73
2023/09/25 00:15:46;;;;;;;0.40;0.40;;;12.00;99.90;;;;;;5094740;28;20039;-73
2023/09/25 00:18:13;;;;;;;0.40;0.40;;;11.90;99.90;;;;;;5094858;28;20054;-75
2023/09/25 00:20:39;;;;;;;0.70;0.68;;;11.90;99.90;;;;;;5094696;28;20463;-76
2023/09/25 00:23:05;;;;;;;0.50;0.50;;;11.90;99.90;;;;;;5094697;28;20040;-75
2023/09/25 00:25:31;;;;;;;0.60;0.60;;;12.20;99.90;;;;;;5094412;28;20036;-75
2023/09/25 00:27:57;;;;;;;0.47;0.47;;;11.80;99.90;;;;;;5094563;28;20036;-73
2023/09/25 00:30:23;;;;;;;0.63;0.63;;;11.90;99.90;;;;;;5093738;28;20136;-73
2023/09/25 00:32:50;;;;;;;0.50;0.50;;;11.90;99.90;;;;;;5094175;28;20765;-76
2023/09/25 00:35:17;;;;;;;0.50;0.50;;;11.90;99.90;;;;;;5094733;28;20382;-75
2023/09/25 00:37:43;;;;;;;0.65;0.60;;;11.90;99.90;;;;;;5094368;28;20047;-75
2023/09/25 00:40:21;;;;;;;0.60;0.60;;;11.90;99.90;;;;;;5094467;28;20028;-73
2023/09/25 00:42:49;;;;;;;0.50;0.50;;;11.90;99.90;;;;;;5094071;28;20376;-73
2023/09/25 00:45:15;;;;;;;0.50;0.50;;;11.90;99.90;;;;;;5094539;28;20459;-73
2023/09/25 00:47:44;;;;;;;0.50;0.50;;;11.90;99.90;;;;;;5094328;28;20043;-73
2023/09/25 00:50:11;;;;;;;0.75;0.50;;;11.90;99.90;;;;;;5094045;28;20130;-76
2023/09/25 00:52:41;;;;;;;0.60;0.60;;;11.90;99.90;;;;;;5094248;28;20051;-75
2023/09/25 00:55:07;;;;;;;0.60;0.60;;;11.90;99.90;;;;;;5094335;28;20051;-75
2023/09/25 00:57:39;;;;;;;0.50;0.50;;;11.90;99.90;;;;;;5094111;28;20063;-74
2023/09/25 01:00:10;;;;;;;0.50;0.50;;;11.90;99.90;;;;;;5094103;28;20044;-75
2023/09/25 01:02:36;;;;;;;0.57;0.50;;;11.90;99.90;;;;;;5094158;28;20125;-74
2023/09/25 01:05:03;;;;;;;0.70;0.70;;;11.90;99.90;;;;;;5094168;28;20083;-74
2023/09/25 01:07:29;;;;;;;0.50;0.50;;;11.80;99.90;;;;;;5093737;28;20040;-74
2023/09/25 01:10:10;;;;;;;0.60;0.60;;;11.80;99.90;;;;;;5093927;28;20085;-73
2023/09/25 01:12:37;;;;;;;0.40;0.40;;;11.80;99.90;;;;;;5094449;28;20040;-73
2023/09/25 01:15:03;;;;;;;;;;;11.70;99.90;;;;;;5094293;28;20051;-76
2023/09/25 01:17:30;;;;;;;0.50;0.50;;;11.70;99.90;;;;;;5093981;28;20359;-74
2023/09/25 01:19:55;;;;;;;0.50;0.50;;;11.70;99.90;;;;;;5093883;28;20067;-74
2023/09/25 01:22:21;;;;;;;0.40;0.40;;;11.70;99.90;;;;;;5093745;28;20482;-74
2023/09/25 01:24:47;;;;;;;0.50;0.50;;;11.70;99.90;;;;;;5094265;28;20044;-75
2023/09/25 01:27:12;;;;;;;0.40;0.40;;;11.70;99.90;;;;;;5094285;28;20044;-75
2023/09/25 01:29:38;;;;;;;0.50;0.50;;;11.60;99.90;;;;;;5093666;28;20043;-76
2023/09/25 01:32:04;;;;;;;0.60;0.60;;;11.60;99.90;;;;;;5093762;28;20036;-76
2023/09/25 01:34:31;;;;;;;0.40;0.40;;;11.60;99.90;;;;;;5093787;28;20396;-73
2023/09/25 01:36:57;;;;;;;1.13;1.02;;;11.70;99.90;;;;;;5093653;28;20127;-75
2023/09/25 01:39:22;;;;;;;0.40;0.40;;;11.60;99.90;;;;;;5093755;28;20040;-76
2023/09/25 01:41:48;;;;;;;0.40;0.40;;;11.70;99.90;;;;;;5094838;28;20032;-76
2023/09/25 01:44:13;;;;;;;0.50;0.50;;;11.60;99.90;;;;;;5097784;28;20114;-75
2023/09/25 01:46:42;;;;;;;0.60;0.60;;;11.60;99.90;;;;;;5097716;28;20482;-74
2023/09/25 01:49:08;;;;;;;0.50;0.50;;;11.60;99.90;;;;;;5097371;28;20028;-75
2023/09/25 01:51:33;;;;;;;0.50;0.50;;;11.60;99.90;;;;;;5097579;28;20047;-75
2023/09/25 01:53:59;;;;;;;0.50;0.50;;;11.60;99.90;;;;;;5096401;28;20483;-75
2023/09/25 01:56:25;;;;;;;0.55;0.55;;;11.60;99.90;;;;;;5097772;28;20039;-74
2023/09/25 01:58:51;;;;;;;0.70;0.70;;;11.60;99.90;;;;;;5097532;28;20032;-75
2023/09/25 02:01:16;;;;;;;0.40;0.40;;;11.50;99.90;;;;;;5097433;28;20032;-75
2023/09/25 02:03:42;;;;;;;0.50;0.50;;;11.50;99.90;;;;;;5097389;28;20062;-74
2023/09/25 02:06:08;;;;;;;0.40;0.40;;;11.50;99.90;;;;;;5097349;28;20464;-74
2023/09/25 02:08:33;;;;;;;0.50;0.50;;;11.50;99.90;;;;;;5097461;28;20094;-75
2023/09/25 02:10:59;;;;;;;0.52;0.52;;;11.50;99.90;;;;;;5097910;28;20047;-74
2023/09/25 02:13:25;;;;;;;1.58;1.48;;;11.50;99.90;;;;;;5097176;28;20384;-74
2023/09/25 02:15:51;;;;;;;0.43;0.43;;;11.40;99.90;;;;;;5096986;28;20353;-74
2023/09/25 02:18:17;;;;;;;0.50;0.50;;;11.40;99.90;;;;;;5097081;28;20039;-74
2023/09/25 02:20:43;;;;;;;0.50;0.50;;;11.50;99.90;;;;;;5097046;28;20582;-73
2023/09/25 02:23:08;;;;;;;0.40;0.40;;;11.40;99.90;;;;;;5096903;28;20051;-73
2023/09/25 02:25:34;;;;;;;0.50;0.50;;;11.30;99.90;;;;;;5096938;28;20058;-76
2023/09/25 02:27:59;;;;;;;0.40;0.40;;;11.30;99.90;;;;;;5096981;28;20467;-75
2023/09/25 02:30:25;;;;;;;0.50;0.50;;;11.30;99.90;;;;;;5096819;28;20531;-74
2023/09/25 02:32:51;;;;;;;0.60;0.60;;;11.30;99.90;;;;;;5096890;28;20055;-74
2023/09/25 02:35:16;;;;;;;0.50;0.50;;;11.30;99.90;;;;;;5096855;28;20066;-74
2023/09/25 02:37:44;;;;;;;0.77;0.50;;;11.30;99.90;;;;;;5096633;28;20121;-74
2023/09/25 02:40:13;;;;;;;0.50;0.50;;;11.30;99.90;;;;;;5096690;28;20089;-75
2023/09/25 02:42:40;;;;;;;0.52;0.52;;;11.20;99.90;;;;;;5096669;28;20048;-75
2023/09/25 02:45:05;;;;;;;;;;;11.20;99.90;;;;;;5097270;28;20045;-73
2023/09/25 02:47:31;;;;;;;0.68;0.50;;;11.20;99.90;;;;;;5096702;28;19927;-73
2023/09/25 02:49:57;;;;;;;0.50;0.50;;;11.10;99.90;;;;;;5096456;28;20466;-75
2023/09/25 02:52:22;;;;;;;0.50;0.50;;;11.20;99.90;;;;;;5096466;28;20111;-75
2023/09/25 02:54:48;;;;;;;0.50;0.50;;;11.20;99.90;;;;;;5095574;28;20036;-74
2023/09/25 02:57:13;;;;;;;0.75;0.70;;;11.20;99.90;;;;;;5096338;28;20047;-73
2023/09/25 02:59:39;;;;;;;0.63;0.63;;;11.20;99.90;;;;;;5096558;28;20368;-75
2023/09/25 03:02:05;;;;;;;0.75;0.75;;;11.20;99.90;;;;;;5096475;28;20043;-76
2023/09/25 03:04:30;;;;;;;0.60;0.60;;;11.30;99.90;;;;;;5096219;28;20499;-75
2023/09/25 03:06:56;;;;;;;0.60;0.60;;;11.30;99.90;;;;;;5096147;28;20040;-76
2023/09/25 03:09:22;;;;;;;0.50;0.50;;;11.20;99.90;;;;;;5096605;28;20044;-73
2023/09/25 03:11:48;;;;;;;0.50;0.50;;;11.20;99.90;;;;;;5096073;28;20044;-73
2023/09/25 03:14:13;;;;;;;2.95;2.50;;;11.20;99.90;;;;;;5096037;28;20040;-76
2023/09/25 03:16:40;;;;;;;0.50;0.50;;;11.20;99.90;;;;;;5095999;28;20044;-75
2023/09/25 03:19:06;;;;;;;1.00;0.90;;;11.20;99.90;;;;;;5095739;28;20040;-76
2023/09/25 03:21:32;;;;;;;0.43;0.43;;;11.20;99.90;;;;;;5095883;28;20491;-72
2023/09/25 03:23:57;;;;;;;0.50;0.50;;;11.10;99.90;;;;;;5095887;28;20051;-73
2023/09/25 03:26:23;;;;;;;0.50;0.50;;;11.10;99.90;;;;;;5095844;28;20040;-73
2023/09/25 03:28:49;;;;;;;0.70;0.70;;;11.10;99.90;;;;;;5095838;28;20067;-75
2023/09/25 03:31:15;;;;;;;0.40;0.40;;;11.10;99.90;;;;;;5095882;28;20430;-74
2023/09/25 03:33:41;;;;;;;0.50;0.50;;;11.20;99.90;;;;;;5095741;28;20036;-74
2023/09/25 03:36:07;;;;;;;0.50;0.50;;;11.00;99.90;;;;;;5095337;28;20039;-75
2023/09/25 03:38:34;;;;;;;0.70;0.60;;;11.20;99.90;;;;;;5095565;28;20032;-74
2023/09/25 03:40:59;;;;;;;0.60;0.60;;;11.00;99.90;;;;;;5095916;28;20081;-73
2023/09/25 03:43:26;;;;;;;0.60;0.60;;;11.10;99.90;;;;;;5095631;28;20040;-76
2023/09/25 03:45:52;;;;;;;0.60;0.60;;;11.00;99.90;;;;;;5095423;28;20051;-73
2023/09/25 03:48:17;;;;;;;0.50;0.50;;;11.00;99.90;;;;;;5095337;28;20044;-74
2023/09/25 03:50:43;;;;;;;0.60;0.60;;;11.00;99.90;;;;;;5095014;28;20036;-75
2023/09/25 03:53:10;;;;;;;0.50;0.50;;;11.00;99.90;;;;;;5095349;28;20170;-75
2023/09/25 03:55:35;;;;;;;0.57;0.57;;;11.10;99.90;;;;;;5095276;28;20040;-75
2023/09/25 03:58:01;;;;;;;0.50;0.50;;;11.00;99.90;;;;;;5095208;28;20125;-76
2023/09/25 04:00:26;;;;;;;0.70;0.60;;;10.90;99.90;;;;;;5095137;28;20040;-72
2023/09/25 04:02:53;;;;;;;2.05;0.70;;;11.00;99.90;;;;;;5095095;28;20054;-75
2023/09/25 04:05:19;;;;;;;0.52;0.52;;;11.60;99.90;;;;;;5095043;28;20095;-73
2023/09/25 04:07:45;;;;;;;0.60;0.60;;;11.00;99.90;;;;;;5095032;28;20463;-74
2023/09/25 04:10:11;;;;;;;0.70;0.70;;;11.00;99.90;;;;;;5094922;28;20032;-75
2023/09/25 04:12:37;;;;;;;0.60;0.60;;;11.00;99.90;;;;;;5094877;28;20040;-76
2023/09/25 04:15:13;;;;;;;0.73;0.70;;;11.00;99.90;;;;;;5094912;28;20281;-74
2023/09/25 04:17:42;;;;;;;0.60;0.60;;;11.00;99.90;;;;;;5094923;28;20135;-74
2023/09/25 04:20:09;;;;;;;0.50;0.50;;;11.00;99.90;;;;;;5094610;28;20047;-74
2023/09/25 04:22:40;;;;;;;0.50;0.50;;;11.00;99.90;;;;;;5093976;28;20085;-75
2023/09/25 04:25:09;;;;;;;0.73;0.70;;;11.00;99.90;;;;;;5094687;28;20115;-74
2023/09/25 04:27:35;;;;;;;0.70;0.70;;;11.00;99.90;;;;;;5094311;28;20480;-73
2023/09/25 04:30:08;;;;;;;0.70;0.70;;;11.60;99.90;;;;;;5094436;28;20523;-74
2023/09/25 04:32:34;;;;;;;0.60;0.60;;;11.00;99.90;;;;;;5094494;28;20446;-75
2023/09/25 04:35:00;;;;;;;0.50;0.50;;;11.00;99.90;;;;;;5094403;28;20115;-76
2023/09/25 04:37:25;;;;;;;0.60;0.60;;;10.90;99.90;;;;;;5094355;28;20044;-73
2023/09/25 04:39:51;;;;;;;0.60;0.60;;;11.00;99.90;;;;;;5094271;28;20043;-75
2023/09/25 04:42:17;;;;;;;0.60;0.60;;;11.00;99.90;;;;;;5094344;28;20493;-73
2023/09/25 04:44:43;;;;;;;0.60;0.60;;;11.00;99.90;;;;;;5094358;28;20051;-73
2023/09/25 04:47:09;;;;;;;0.70;0.70;;;11.00;99.90;;;;;;5094092;28;20032;-73
2023/09/25 04:49:35;;;;;;;0.60;0.60;;;11.00;99.90;;;;;;5094659;28;20460;-74
2023/09/25 04:52:01;;;;;;;0.60;0.60;;;11.00;99.90;;;;;;5094232;28;20127;-74
2023/09/25 04:54:26;;;;;;;0.60;0.60;;;11.20;99.90;;;;;;5094237;28;20054;-74
2023/09/25 04:56:52;;;;;;;0.80;0.80;;;11.00;99.90;;;;;;5094133;28;20044;-75
2023/09/25 04:59:17;;;;;;;0.57;0.57;;;11.10;99.90;;;;;;5093883;28;20028;-73
2023/09/25 05:01:43;;;;;;;0.55;0.55;;;11.60;99.90;;;;;;5094165;28;20040;-74
2023/09/25 05:04:09;;;;;;;0.50;0.50;;;11.10;99.90;;;;;;5093758;28;20468;-74
2023/09/25 05:06:35;;;;;;;0.70;0.50;;;11.10;99.90;;;;;;5094034;28;20040;-74
2023/09/25 05:09:01;;;;;;;0.57;0.57;;;11.10;99.90;;;;;;5094105;28;20048;-75
2023/09/25 05:11:26;;;;;;;0.52;0.52;;;11.10;99.90;;;;;;5093812;28;20131;-76
2023/09/25 05:13:52;;;;;;;0.60;0.60;;;11.10;99.90;;;;;;5093881;28;20044;-75
2023/09/25 05:16:18;;;;;;;0.93;0.60;;;11.20;99.90;;;;;;5093117;28;20039;-74
2023/09/25 05:18:43;;;;;;;0.60;0.60;;;11.20;99.90;;;;;;5093728;28;20036;-74
2023/09/25 05:21:09;;;;;;;0.57;0.57;;;11.20;99.90;;;;;;5093773;28;20040;-75
2023/09/25 05:23:34;;;;;;;0.60;0.60;;;11.20;99.90;;;;;;5094178;28;20122;-73
2023/09/25 05:26:00;;;;;;;0.60;0.60;;;11.20;99.90;;;;;;5093996;28;20380;-74
2023/09/25 05:28:26;;;;;;;0.45;0.45;;;11.20;99.90;;;;;;5093669;28;20051;-73
2023/09/25 05:30:55;;;;;;;0.60;0.60;;;11.20;99.90;;;;;;5093497;28;20036;-74
2023/09/25 05:33:22;;;;;;;0.70;0.70;;;11.20;99.90;;;;;;5093502;28;20047;-75
2023/09/25 05:35:48;;;;;;;0.50;0.50;;;11.20;99.90;;;;;;5094043;28;20051;-74
2023/09/25 05:38:13;;;;;;;0.50;0.50;;;11.20;99.90;;;;;;5093557;28;20489;-74
2023/09/25 05:40:39;;;;;;;0.82;0.82;;;11.10;99.90;;;;;;5093601;28;20040;-73
2023/09/25 05:43:05;;;;;;;0.70;0.70;;;11.40;99.90;;;;;;5093608;28;20110;-74
2023/09/25 05:45:31;;;;;;;0.53;0.53;;;11.10;99.90;;;;;;5093600;28;20052;-75
2023/09/25 05:47:57;;;;;;;0.70;0.70;;;11.10;99.90;;;;;;5093571;28;20456;-72
2023/09/25 05:50:25;;;;;;;0.60;0.60;;;11.20;99.90;;;;;;5093498;28;20048;-77
2023/09/25 05:52:51;;;;;;;0.52;0.52;;;11.20;99.90;;;;;;5093853;28;20039;-76
2023/09/25 05:55:17;;;;;;;1.10;0.90;;;11.20;99.90;;;;;;5093499;28;20564;-70
2023/09/25 05:57:42;;;;;;;0.75;0.70;;;11.30;99.90;;;;;;5093493;28;20040;-73
2023/09/25 06:00:12;;;;;;;0.50;0.50;;;11.30;99.90;;;;;;5092347;28;20032;-70
2023/09/25 06:02:39;;;;;;;0.70;0.70;;;11.30;99.90;;;;;;5093062;28;20043;-71
2023/09/25 06:05:05;;;;;;;;;;;11.30;99.90;;;;;;5093463;28;20468;-73
2023/09/25 06:07:30;;;;;;;0.50;0.50;;;11.30;99.90;;;;;;5093273;28;19916;-73
2023/09/25 06:09:56;;;;;;;0.68;0.68;;;11.40;99.90;;;;;;5093025;28;20043;-71
2023/09/25 06:12:22;;;;;;;0.63;0.60;;;11.40;99.90;;;;;;5093373;28;20131;-72
2023/09/25 06:14:47;;;;;;;1.13;1.02;;;11.50;99.90;;;;;;5093331;28;20479;-70
2023/09/25 06:17:15;;;;;;;0.50;0.50;;;11.50;99.90;;;;;;5093183;28;20040;-71
2023/09/25 06:19:41;;;;;;;0.60;0.60;;;11.50;99.90;;;;;;5093224;28;20048;-70
2023/09/25 06:22:07;;;;;;;0.50;0.50;;;11.60;99.90;;;;;;5093120;28;20051;-72
2023/09/25 06:24:32;;;;;;;0.60;0.47;;;12.30;99.90;;;;;;5093205;28;20276;-72
2023/09/25 06:26:59;;;;;;;0.50;0.50;;;11.60;99.90;;;;;;5093359;28;20479;-73
2023/09/25 06:29:25;;;;;;;0.60;0.60;;;11.70;99.90;;;;;;5094934;28;20042;-71
2023/09/25 06:31:51;;;;;;;0.50;0.50;;;11.70;99.90;;;;;;5096845;28;20090;-70
2023/09/25 06:34:17;;;;;;;0.77;0.60;;;11.80;99.90;;;;;;5097251;28;20451;-72
2023/09/25 06:36:42;;;;;;;0.50;0.50;;;11.80;99.90;;;;;;5097109;28;20036;-74
2023/09/25 06:39:11;;;;;;;0.55;0.55;;;11.90;99.90;;;;;;5096769;28;20128;-71
2023/09/25 06:41:37;;;;;;;0.50;0.50;;;11.90;99.90;;;;;;5096561;28;20131;-71
2023/09/25 06:44:07;;;;;;;0.70;0.70;;;11.90;99.90;;;;;;5096606;28;20050;-74
2023/09/25 06:46:33;;;;;;;0.50;0.50;;;12.00;99.90;;;;;;5096544;28;20498;-74
2023/09/25 06:48:59;;;;;;;0.60;0.60;;;12.00;99.90;;;;;;5096249;28;20043;-76
2023/09/25 06:51:26;;;;;;;0.70;0.70;;;12.10;99.90;;;;;;5096470;28;20464;-72
2023/09/25 06:53:52;;;;;;;0.75;0.75;;;12.20;99.90;;;;;;5096580;28;20044;-76
2023/09/25 06:56:17;;;;;;;0.85;0.65;;;12.30;99.90;;;;;;5096455;28;20494;-69
2023/09/25 06:58:43;;;;;;;0.60;0.57;;;12.30;99.90;;;;;;5096338;28;20044;-74
2023/09/25 07:01:09;;;;;;;0.60;0.60;;;12.40;99.90;;;;;;5096209;28;20047;-70
2023/09/25 07:03:35;;;;;;;0.60;0.60;;;12.70;99.90;;;;;;5096658;28;20066;-71
2023/09/25 07:06:02;;;;;;;0.50;0.50;;;12.60;99.90;;;;;;5096239;28;20055;-76
2023/09/25 07:08:27;;;;;;;0.60;0.60;;;12.70;99.90;;;;;;5096149;28;20048;-70
2023/09/25 07:10:53;;;;;;;0.50;0.50;;;12.80;99.90;;;;;;5096309;28;20321;-74
2023/09/25 07:13:20;;;;;;;0.57;0.57;;;13.10;99.90;;;;;;5096140;28;20063;-73
2023/09/25 07:15:47;;;;;;;0.63;0.63;;;12.90;99.90;;;;;;5095954;28;20177;-73
2023/09/25 07:18:13;;;;;;;0.50;0.50;;;13.00;99.90;;;;;;5096445;28;20059;-73
2023/09/25 07:20:39;;;;;;;0.68;0.60;;;13.20;99.90;;;;;;5095932;28;20036;-73
2023/09/25 07:23:06;;;;;;;0.57;0.57;;;13.20;99.90;;;;;;5095920;28;20543;-73
2023/09/25 07:25:31;;;;;;;0.50;0.50;;;13.30;99.90;;;;;;5095853;28;20040;-73
2023/09/25 07:27:57;;;;;;;0.52;0.52;;;13.50;99.90;;;;;;5095715;28;20115;-73
2023/09/25 07:30:23;;;;;;;0.60;0.60;;;13.50;99.90;;;;;;5095607;28;20028;-73
2023/09/25 07:32:49;;;;;;;0.70;0.70;;;13.70;99.90;;;;;;5095710;28;20036;-73
2023/09/25 07:35:15;;;;;;;0.40;0.40;;;13.90;99.90;;;;;;5095689;28;20528;-73
2023/09/25 07:37:42;;;;;;;0.47;0.47;;;14.00;99.90;;;;;;5095411;28;20498;-74
2023/09/25 07:40:11;;;;;;;;;;;14.20;99.90;;;;;;5095605;28;20490;-73
2023/09/25 07:42:38;;;;;;;0.50;0.50;;;14.30;99.90;;;;;;5095569;28;19963;-73
2023/09/25 07:45:06;;;;;;;0.50;0.50;;;14.50;99.90;;;;;;5095377;28;20115;-73
2023/09/25 07:47:32;;;;;;;0.40;0.40;;;14.60;99.90;;;;;;5093719;28;20044;-73
2023/09/25 07:49:58;;;;;;;0.30;0.30;;;14.60;99.90;;;;;;5094921;28;20036;-73
2023/09/25 07:52:24;;;;;;;0.40;0.40;;;14.80;99.90;;;;;;5095181;28;20080;-73
2023/09/25 07:54:51;;;;;;;0.50;0.50;;;14.80;99.90;;;;;;5094936;28;20047;-73
2023/09/25 07:57:21;;;;;;;0.52;0.52;;;14.90;99.90;;;;;;5094931;28;20036;-72
2023/09/25 07:59:48;;;;;;;0.60;0.60;;;14.90;99.90;;;;;;5094830;28;20075;-75
2023/09/25 08:02:17;;;;;;;2.00;1.05;;;15.00;99.90;;;;;;5094895;28;20035;-74
2023/09/25 08:04:44;;;;;;;0.40;0.40;;;15.00;99.90;;;;;;5094694;28;20548;-75
2023/09/25 08:07:10;;;;;;;0.40;0.40;;;15.10;99.90;;;;;;5094662;28;20117;-73
2023/09/25 08:09:36;;;;;;;0.40;0.40;;;15.20;99.90;;;;;;5095001;28;20085;-75
2023/09/25 08:12:02;;;;;;;0.50;0.50;;;15.20;99.90;;;;;;5094419;28;20052;-76
2023/09/25 08:14:28;;;;;;;0.50;0.50;;;15.30;99.90;;;;;;5094393;28;20048;-72
2023/09/25 08:16:54;;;;;;;0.50;0.50;;;15.30;99.90;;;;;;5094735;28;20374;-73
2023/09/25 08:19:22;;;;;;;1.70;0.60;;;15.40;99.90;;;;;;5094806;28;20047;-74
2023/09/25 08:21:53;;;;;;;0.30;0.30;;;15.40;99.90;;;;;;5094705;28;20097;-74
2023/09/25 08:24:19;;;;;;;0.40;0.40;;;15.50;99.90;;;;;;5093864;28;20127;-74
2023/09/25 08:26:47;;;;;;;0.60;0.60;;;15.50;99.90;;;;;;5094028;28;20128;-74
2023/09/25 08:29:14;;;;;;;0.60;0.60;;;15.60;99.90;;;;;;5094625;28;20066;-75
2023/09/25 08:31:44;;;;;;;0.50;0.50;;;15.60;99.90;;;;;;5091944;28;20480;-74
2023/09/25 08:34:11;;;;;;;0.47;0.47;;;15.70;99.90;;;;;;5093020;28;20454;-74
2023/09/25 08:36:37;;;;;;;0.40;0.40;;;15.80;99.90;;;;;;5094634;28;20055;-75
2023/09/25 08:39:04;;;;;;;5.18;0.88;;;15.80;99.90;;;;;;5094355;28;20360;-75
2023/09/25 08:41:31;;;;;;;0.60;0.60;;;16.00;99.90;;;;;;5094052;28;20039;-74
2023/09/25 08:43:57;;;;;;;0.40;0.40;;;16.10;99.90;;;;;;5094206;28;20127;-75
2023/09/25 08:46:25;;;;;;;1.02;0.93;;;16.20;99.90;;;;;;5094195;28;20093;-74
2023/09/25 08:48:56;;;;;;;0.45;0.45;;;16.30;99.90;;;;;;5093942;28;20390;-74
2023/09/25 08:51:24;;;;;;;0.40;0.40;;;16.40;99.90;;;;;;5093176;28;20387;-74
2023/09/25 08:53:51;;;;;;;0.40;0.40;;;16.60;99.90;;;;;;5094073;28;20097;-76
2023/09/25 08:56:17;;;;;;;;;;;16.70;99.90;;;;;;5092700;28;20040;-75
2023/09/25 08:58:43;;;;;;;0.50;0.50;;;16.90;99.90;;;;;;5093932;28;20278;-75
2023/09/25 09:01:09;;;;;;;0.30;0.30;;;16.90;99.90;;;;;;5094088;28;20519;-74
2023/09/25 09:03:34;;;;;;;0.70;0.70;;;16.90;99.90;;;;;;5093752;28;20032;-74
2023/09/25 09:06:00;;;;;;;0.50;0.50;;;16.90;99.90;;;;;;5093876;28;20475;-74
2023/09/25 09:08:29;;;;;;;0.80;0.60;;;17.00;99.90;;;;;;5093307;28;20480;-78
2023/09/25 09:10:56;;;;;;;0.40;0.40;;;16.90;99.90;;;;;;5093581;28;20072;-73
2023/09/25 09:13:23;;;;;;;0.63;0.63;;;16.90;99.90;;;;;;5093705;28;20094;-73
2023/09/25 09:15:49;;;;;;;;;;;17.00;99.90;;;;;;5093995;28;20044;-74
2023/09/25 09:18:24;;;;;;;0.38;0.38;;;17.10;99.90;;;;;;5093800;28;19971;-75
2023/09/25 09:20:51;;;;;;;1.17;0.40;;;17.20;99.90;;;;;;5093910;28;20383;-75
2023/09/25 09:23:17;;;;;;;0.47;0.47;;;17.30;99.90;;;;;;5093106;28;20036;-77
2023/09/25 09:25:47;;;;;;;0.30;0.30;;;17.40;99.90;;;;;;5093697;28;20046;-81
2023/09/25 09:28:13;;;;;;;0.35;0.35;;;17.40;99.90;;;;;;5093473;28;20065;-78
2023/09/25 09:30:40;;;;;;;0.63;0.63;;;17.60;99.90;;;;;;5093834;28;20032;-77
2023/09/25 09:33:09;;;;;;;0.43;0.43;;;17.70;99.90;;;;;;5093605;28;20028;-76
2023/09/25 09:35:35;;;;;;;1.02;0.73;;;17.90;99.90;;;;;;5093217;28;20062;-78
2023/09/25 09:38:04;;;;;;;0.43;0.40;;;18.00;99.90;;;;;;5092923;28;20158;-74
2023/09/25 09:40:30;;;;;;;0.40;0.40;;;18.10;99.90;;;;;;5093028;28;20488;-78
2023/09/25 09:42:56;;;;;;;0.45;0.45;;;18.20;99.90;;;;;;5093318;28;20364;-73
2023/09/25 09:45:22;;;;;;;0.30;0.30;;;18.30;99.90;;;;;;5093288;28;20040;-74
2023/09/25 09:47:50;;;;;;;0.30;0.30;;;18.40;99.90;;;;;;5093214;28;20281;-73
2023/09/25 09:50:26;;;;;;;2.75;0.65;;;18.40;99.90;;;;;;5093051;28;20108;-75
2023/09/25 09:52:52;;;;;;;0.30;0.30;;;18.50;99.90;;;;;;5093156;28;20122;-75
2023/09/25 09:55:21;;;;;;;0.45;0.45;;;18.50;99.90;;;;;;5093385;28;20096;-72
2023/09/25 09:57:49;;;;;;;0.40;0.40;;;18.50;99.90;;;;;;5093265;28;20050;-74
2023/09/25 10:00:15;;;;;;;0.40;0.40;;;18.40;99.90;;;;;;5093017;28;20052;-73
2023/09/25 10:02:41;;;;;;;0.50;0.50;;;18.40;99.90;;;;;;5094383;28;20044;-74
2023/09/25 10:05:10;;;;;;;0.32;0.32;;;18.50;99.90;;;;;;5096809;28;20468;-73
2023/09/25 10:08:05;;;;;;;0.28;0.28;;;18.60;99.90;;;;;;5096821;28;20052;-73
2023/09/25 10:10:31;;;;;;;0.30;0.30;;;18.70;99.90;;;;;;5097078;28;20460;-76
2023/09/25 10:12:57;;;;;;;0.30;0.30;;;18.80;99.90;;;;;;5096934;28;20131;-77
2023/09/25 10:15:27;;;;;;;0.63;0.43;;;18.80;99.90;;;;;;5097116;28;20367;-73
2023/09/25 10:17:54;;;;;;;0.40;0.30;;;18.80;99.90;;;;;;5096922;28;20443;-70
2023/09/25 10:20:41;;;;;;;0.30;0.30;;;18.80;99.90;;;;;;5097053;28;20176;-72
2023/09/25 10:23:06;;;;;;;0.50;0.50;;;18.80;99.90;;;;;;5097053;28;20043;-71
2023/09/25 10:25:52;;;;;;;0.30;0.30;;;18.80;99.90;;;;;;5096521;28;20062;-75
2023/09/25 10:28:29;;;;;;;1.05;0.55;;;18.90;99.90;;;;;;5096724;28;20032;-74
2023/09/25 10:30:58;;;;;;;0.30;0.30;;;19.00;99.90;;;;;;5096438;28;20577;-71
2023/09/25 10:33:31;;;;;;;0.30;0.30;;;19.00;99.90;;;;;;5096745;28;20039;-73
2023/09/25 10:36:04;;;;;;;0.52;0.52;;;19.10;99.90;;;;;;5096518;28;20365;-75
2023/09/25 10:38:36;;;;;;;0.85;0.57;;;19.20;99.90;;;;;;5096166;28;20442;-75
2023/09/25 10:41:04;;;;;;;0.30;0.30;;;19.20;99.90;;;;;;5096675;28;20395;-75
2023/09/25 10:43:30;;;;;;;0.30;0.30;;;19.30;99.90;;;;;;5096397;28;20044;-73
2023/09/25 10:45:56;;;;;;;;;;;19.40;99.90;;;;;;5096779;28;20065;-75
2023/09/25 10:48:25;;;;;;;0.30;0.30;;;19.40;99.90;;;;;;5096389;28;19920;-76
2023/09/25 10:50:51;;;;;;;0.77;0.68;;;19.50;99.90;;;;;;5096015;28;20036;-76
2023/09/25 10:53:17;;;;;;;0.30;0.30;;;19.60;99.90;;;;;;5096238;28;20046;-77
2023/09/25 10:55:43;;;;;;;0.30;0.30;;;19.60;99.90;;;;;;5096308;28;20372;-76
2023/09/25 10:58:12;;;;;;;0.40;0.40;;;19.80;99.90;;;;;;5096077;28;20312;-77
2023/09/25 11:00:39;;;;;;;0.95;0.60;;;19.80;99.90;;;;;;5096301;28;20040;-79
2023/09/25 11:03:06;;;;;;;0.30;0.30;;;19.90;99.90;;;;;;5096114;28;20087;-74
2023/09/25 11:05:34;;;;;;;0.32;0.32;;;20.00;99.90;;;;;;5095919;28;20092;-76
2023/09/25 11:08:00;;;;;;;0.30;0.30;;;20.00;99.90;;;;;;5095921;28;20079;-75
2023/09/25 11:10:29;;;;;;;0.30;0.30;;;20.00;99.90;;;;;;5095999;28;20036;-78
2023/09/25 11:12:57;;;;;;;0.30;0.30;;;19.90;99.90;;;;;;5095911;28;20083;-73
2023/09/25 11:15:25;;;;;;;0.20;0.20;;;19.90;99.90;;;;;;5094983;28;20445;-74
2023/09/25 11:17:51;;;;;;;0.70;0.70;;;19.90;99.90;;;;;;5095876;28;20086;-76
2023/09/25 11:20:19;;;;;;;0.47;0.47;;;19.80;99.90;;;;;;5095452;28;20032;-73
2023/09/25 11:22:49;;;;;;;0.40;0.40;;;19.90;99.90;;;;;;5095501;28;20480;-71
2023/09/25 11:25:15;;;;;;;0.30;0.30;;;19.90;99.90;;;;;;5095684;28;20044;-73
2023/09/25 11:27:56;;;;;;;0.47;0.35;;;20.00;99.90;;;;;;5094441;28;20044;-73
2023/09/25 11:30:26;;;;;;;0.20;0.20;;;20.00;99.90;;;;;;5095714;28;20036;-74
2023/09/25 11:32:52;;;;;;;0.20;0.20;;;20.00;99.90;;;;;;5095186;28;20114;-73
2023/09/25 11:35:22;;;;;;;0.30;0.30;;;20.10;99.90;;;;;;5095279;28;20132;-74
2023/09/25 11:38:01;;;;;;;0.50;0.50;;;20.20;99.90;;;;;;5095477;28;20085;-73
2023/09/25 11:40:28;;;;;;;0.20;0.20;;;20.30;99.90;;;;;;5095214;28;20417;-73
2023/09/25 11:42:55;;;;;;;0.30;0.30;;;20.40;99.90;;;;;;5095259;28;20040;-74
2023/09/25 11:45:21;;;;;;;0.30;0.30;;;20.40;99.90;;;;;;5094813;28;20048;-76
2023/09/25 11:47:48;;;;;;;2.72;0.40;;;20.50;99.90;;;;;;5095201;28;20127;-72
2023/09/25 11:50:15;;;;;;;;;;;20.50;99.90;;;;;;5094910;28;20480;-73
2023/09/25 11:52:44;;;;;;;0.40;0.40;;;20.60;99.90;;;;;;5094911;28;19970;-74
2023/09/25 11:55:14;;;;;;;0.60;0.50;;;20.60;99.90;;;;;;5094988;28;20105;-74
2023/09/25 11:57:41;;;;;;;0.20;0.20;;;20.60;99.90;;;;;;5095076;28;20059;-74
2023/09/25 12:00:12;;;;;;;0.22;0.22;;;20.60;99.90;;;;;;5093550;28;20040;-74
2023/09/25 12:02:40;;;;;;;0.30;0.30;;;20.60;99.90;;;;;;5095057;28;20065;-71
2023/09/25 12:05:06;;;;;;;0.20;0.20;;;20.60;99.90;;;;;;5095162;28;20048;-74
2023/09/25 12:07:38;;;;;;;0.40;0.40;;;20.60;99.90;;;;;;5094753;28;20063;-76
2023/09/25 12:10:08;;;;;;;0.35;0.35;;;20.60;99.90;;;;;;5094864;28;20093;-76
2023/09/25 12:12:37;;;;;;;0.30;0.30;;;20.60;99.90;;;;;;5093464;28;20039;-74
2023/09/25 12:15:03;;;;;;;0.28;0.28;;;20.70;99.90;;;;;;5094613;28;20036;-73
2023/09/25 12:17:30;;;;;;;0.20;0.20;;;20.80;99.90;;;;;;5094683;28;20432;-73
2023/09/25 12:20:14;;;;;;;0.40;0.40;;;20.80;99.90;;;;;;5093381;28;20039;-73
2023/09/25 12:22:41;;;;;;;0.20;0.20;;;20.90;99.90;;;;;;5093839;28;20053;-71
2023/09/25 12:25:09;;;;;;;0.40;0.40;;;20.90;99.90;;;;;;5093805;28;20097;-79
2023/09/25 12:27:36;;;;;;;1.20;0.52;;;20.90;99.90;;;;;;5093336;28;20073;-76
2023/09/25 12:30:03;;;;;;;0.38;0.38;;;21.10;99.90;;;;;;5094562;28;20044;-79
2023/09/25 12:32:29;;;;;;;0.30;0.30;;;21.00;99.90;;;;;;5093965;28;20044;-73
2023/09/25 12:34:55;;;;;;;0.20;0.20;;;21.00;99.90;;;;;;5094181;28;20085;-72
2023/09/25 12:37:20;;;;;;;2.33;0.40;;;21.00;99.90;;;;;;5093973;28;20090;-76
2023/09/25 12:39:46;;;;;;;0.83;0.57;;;21.00;99.90;;;;;;5093662;28;20044;-75
2023/09/25 12:42:11;;;;;;;0.20;0.20;;;21.10;99.90;;;;;;5093252;28;20035;-75
2023/09/25 12:44:37;;;;;;;0.20;0.20;;;21.00;99.90;;;;;;5094019;28;20127;-75
2023/09/25 12:47:03;;;;;;;0.30;0.30;;;21.00;99.90;;;;;;5094054;28;20039;-71